Time;durP1;ratioP1;P1;durP2;ratioP2;P2;SDS_P1;SDS_P2;PMS_P1;PMS_P2;Temp;Humidity;BMP_temperature;BMP_pressure;BME280_temperature;BME280_humidity;BME280_pressure;Samples;Min_cycle;Max_cycle;Signal;HPM_P1;HPM_P2
2021/09/13 00:01:09;;;;;;;5.93;3.50;;;29.50;99.90;;;;;;4197428;28;20054;-69
2021/09/13 00:03:14;;;;;;;6.80;2.92;;;29.50;99.90;;;;;;4198204;28;20127;-69
2021/09/13 00:05:19;;;;;;;7.82;3.30;;;29.50;99.90;;;;;;4197510;28;20136;-68
2021/09/13 00:07:24;;;;;;;7.60;3.28;;;29.50;99.90;;;;;;4196125;28;20437;-68
2021/09/13 00:09:29;;;;;;;6.40;3.13;;;29.50;99.90;;;;;;4196766;28;20460;-68
2021/09/13 00:11:34;;;;;;;4.00;2.78;;;29.40;99.90;;;;;;4196458;28;20460;-68
2021/09/13 00:13:39;;;;;;;6.70;3.03;;;29.40;99.90;;;;;;4197774;28;20052;-69
2021/09/13 00:15:44;;;;;;;4.93;2.40;;;29.40;99.90;;;;;;4196118;28;20068;-68
2021/09/13 00:17:50;;;;;;;4.47;2.90;;;29.30;99.90;;;;;;4198388;28;20502;-68
2021/09/13 00:19:56;;;;;;;8.07;3.20;;;29.30;99.90;;;;;;4195746;28;20040;-68
2021/09/13 00:22:00;;;;;;;6.72;2.60;;;29.30;99.90;;;;;;4196517;28;20056;-68
2021/09/13 00:24:06;;;;;;;7.15;3.30;;;29.20;99.90;;;;;;4197458;28;20402;-68
2021/09/13 00:26:10;;;;;;;4.57;2.80;;;29.20;99.90;;;;;;4197644;28;20494;-68
2021/09/13 00:28:15;;;;;;;10.20;2.90;;;29.20;99.90;;;;;;4195379;28;20045;-68
2021/09/13 00:30:20;;;;;;;7.00;2.95;;;29.30;99.90;;;;;;4185960;28;20743;-68
2021/09/13 00:32:25;;;;;;;7.43;3.10;;;29.20;99.90;;;;;;4194973;28;20124;-68
2021/09/13 00:34:35;;;;;;;6.57;2.97;;;29.20;99.90;;;;;;4194162;28;20048;-68
2021/09/13 00:36:40;;;;;;;5.38;2.65;;;29.30;99.90;;;;;;4180112;28;20045;-68
2021/09/13 00:38:45;;;;;;;6.55;2.60;;;29.30;99.90;;;;;;4196760;28;20036;-68
2021/09/13 00:40:52;;;;;;;7.80;3.22;;;29.30;99.90;;;;;;4180621;28;20045;-68
2021/09/13 00:43:02;;;;;;;8.35;3.08;;;29.30;99.90;;;;;;4197679;28;20131;-68
2021/09/13 00:45:08;;;;;;;6.25;2.65;;;29.30;99.90;;;;;;4197077;28;20066;-68
2021/09/13 00:47:12;;;;;;;7.30;3.13;;;29.30;99.90;;;;;;4213051;28;20101;-68
2021/09/13 00:49:18;;;;;;;6.03;3.30;;;29.40;99.90;;;;;;4196387;28;20494;-68
2021/09/13 00:51:22;;;;;;;6.57;3.10;;;29.30;99.90;;;;;;4195261;28;20044;-68
2021/09/13 00:53:27;;;;;;;9.13;3.15;;;29.40;99.90;;;;;;4178884;28;20084;-68
2021/09/13 00:55:32;;;;;;;5.57;3.20;;;29.40;99.90;;;;;;4161545;28;20041;-69
2021/09/13 00:57:36;;;;;;;6.70;3.47;;;29.40;99.90;;;;;;4177843;28;20040;-69
2021/09/13 00:59:41;;;;;;;7.88;3.30;;;29.40;99.90;;;;;;4177971;28;20506;-67
2021/09/13 01:01:46;;;;;;;7.20;3.10;;;29.50;99.90;;;;;;4177521;28;20045;-67
2021/09/13 01:03:54;;;;;;;5.60;3.45;;;29.50;99.90;;;;;;4173310;28;20059;-67
2021/09/13 01:05:59;;;;;;;5.63;3.47;;;29.40;99.90;;;;;;4173442;28;20094;-67
2021/09/13 01:08:04;;;;;;;5.68;3.70;;;29.40;99.90;;;;;;4161653;28;20131;-67
2021/09/13 01:10:09;;;;;;;8.75;4.03;;;29.50;99.90;;;;;;4173821;28;20319;-68
2021/09/13 01:12:14;;;;;;;8.93;3.97;;;29.50;99.90;;;;;;4184588;28;20139;-67
2021/09/13 01:14:20;;;;;;;9.20;4.38;;;29.50;99.90;;;;;;4160382;28;20040;-67
2021/09/13 01:16:24;;;;;;;6.57;4.30;;;29.50;99.90;;;;;;4177588;28;20049;-68
2021/09/13 01:18:29;;;;;;;7.57;3.70;;;29.50;99.90;;;;;;4161082;28;20030;-68
2021/09/13 01:20:34;;;;;;;6.93;4.00;;;29.50;99.90;;;;;;4144863;28;20053;-68
2021/09/13 01:22:41;;;;;;;11.05;3.75;;;29.50;99.90;;;;;;4160635;28;20099;-68
2021/09/13 01:24:45;;;;;;;8.55;3.60;;;29.50;99.90;;;;;;4161177;28;20064;-67
2021/09/13 01:26:50;;;;;;;6.85;3.47;;;29.60;99.90;;;;;;4178867;28;20088;-67
2021/09/13 01:29:01;;;;;;;6.40;3.40;;;29.60;99.90;;;;;;4166402;28;20037;-68
2021/09/13 01:31:09;;;;;;;7.90;3.90;;;29.60;99.90;;;;;;4178457;28;20065;-66
2021/09/13 01:33:18;;;;;;;9.90;4.50;;;29.70;99.90;;;;;;4195028;28;20048;-66
2021/09/13 01:35:23;;;;;;;7.03;5.40;;;29.70;99.90;;;;;;4160668;28;20071;-67
2021/09/13 01:37:31;;;;;;;8.18;5.78;;;29.70;99.90;;;;;;4179077;28;20037;-67
2021/09/13 01:39:48;;;;;;;7.68;4.78;;;29.80;99.90;;;;;;4194718;28;20091;-66
2021/09/13 01:41:53;;;;;;;8.70;4.43;;;29.90;99.90;;;;;;4178378;28;20041;-67
2021/09/13 01:44:02;;;;;;;7.65;4.10;;;30.00;99.90;;;;;;4193362;28;20098;-67
2021/09/13 01:46:07;;;;;;;7.10;4.70;;;30.00;99.90;;;;;;4195222;28;20045;-67
2021/09/13 01:48:19;;;;;;;7.17;3.73;;;30.00;99.90;;;;;;4194855;28;20044;-66
2021/09/13 01:50:27;;;;;;;7.50;3.80;;;30.10;99.90;;;;;;4176769;28;20036;-66
2021/09/13 01:52:32;;;;;;;5.13;3.65;;;30.10;99.90;;;;;;4178380;28;20442;-66
2021/09/13 01:54:37;;;;;;;5.82;3.47;;;30.10;99.90;;;;;;4195794;28;20481;-67
2021/09/13 01:56:46;;;;;;;5.82;4.25;;;30.10;99.90;;;;;;4192192;28;20072;-65
2021/09/13 01:59:02;;;;;;;6.93;4.38;;;30.20;99.90;;;;;;4194575;28;20098;-67
2021/09/13 02:01:06;;;;;;;7.53;3.85;;;30.20;99.90;;;;;;4176720;28;20033;-67
2021/09/13 02:03:15;;;;;;;6.20;4.13;;;30.20;99.90;;;;;;4194092;28;20048;-67
2021/09/13 02:05:24;;;;;;;9.32;3.88;;;30.30;99.90;;;;;;4193888;28;20048;-66
2021/09/13 02:07:31;;;;;;;9.27;4.22;;;30.20;99.90;;;;;;4162428;28;20533;-67
2021/09/13 02:09:36;;;;;;;5.75;3.97;;;30.30;99.90;;;;;;4194266;28;20123;-67
2021/09/13 02:11:47;;;;;;;7.57;4.32;;;30.20;99.90;;;;;;4194045;28;20429;-67
2021/09/13 02:13:57;;;;;;;7.28;4.78;;;30.20;99.90;;;;;;4176571;28;20100;-67
2021/09/13 02:16:03;;;;;;;8.93;4.65;;;30.30;99.90;;;;;;4192055;28;20040;-67
2021/09/13 02:18:10;;;;;;;7.57;4.90;;;30.20;99.90;;;;;;4194292;28;20040;-67
2021/09/13 02:20:22;;;;;;;7.20;4.80;;;30.30;99.90;;;;;;4193615;28;20422;-67
2021/09/13 02:22:26;;;;;;;8.32;5.20;;;30.30;99.90;;;;;;4195069;28;20083;-66
2021/09/13 02:24:33;;;;;;;9.02;5.40;;;30.30;99.90;;;;;;4178431;28;20041;-67
2021/09/13 02:26:40;;;;;;;8.23;4.55;;;30.30;99.90;;;;;;4177543;28;20068;-67
2021/09/13 02:28:44;;;;;;;6.07;4.53;;;30.30;99.90;;;;;;4194530;28;20048;-67
2021/09/13 02:30:51;;;;;;;7.10;5.47;;;30.40;99.90;;;;;;4192705;28;20052;-66
2021/09/13 02:32:55;;;;;;;11.10;6.30;;;30.30;99.90;;;;;;4195564;28;20494;-67
2021/09/13 02:35:07;;;;;;;9.68;6.57;;;30.20;99.90;;;;;;4193297;28;20135;-67
2021/09/13 02:37:12;;;;;;;10.88;6.25;;;30.20;99.90;;;;;;4195852;28;20105;-67
2021/09/13 02:39:16;;;;;;;11.07;6.18;;;30.30;99.90;;;;;;4178481;28;20044;-67
2021/09/13 02:41:23;;;;;;;10.13;6.32;;;30.40;99.90;;;;;;4194919;28;20135;-67
2021/09/13 02:43:28;;;;;;;9.93;5.97;;;30.40;99.90;;;;;;4195993;28;20048;-67
2021/09/13 02:45:34;;;;;;;10.32;5.85;;;30.30;99.90;;;;;;4177911;28;20037;-68
2021/09/13 02:47:40;;;;;;;8.70;5.18;;;30.40;99.90;;;;;;4176538;28;20434;-67
2021/09/13 02:49:49;;;;;;;9.05;5.38;;;30.40;99.90;;;;;;4194550;28;20068;-67
2021/09/13 02:51:56;;;;;;;11.38;6.10;;;30.50;99.90;;;;;;4194936;28;20553;-68
2021/09/13 02:54:01;;;;;;;8.70;6.03;;;30.50;99.90;;;;;;4177032;28;20047;-67
2021/09/13 02:56:08;;;;;;;11.80;6.43;;;30.40;99.90;;;;;;4177874;28;20045;-67
2021/09/13 02:58:17;;;;;;;9.55;6.03;;;30.40;99.90;;;;;;4194672;28;20102;-68
2021/09/13 03:00:21;;;;;;;9.70;5.50;;;30.50;99.90;;;;;;4192169;28;20102;-67
2021/09/13 03:02:34;;;;;;;8.98;5.32;;;30.60;99.90;;;;;;4194776;28;20044;-67
2021/09/13 03:04:40;;;;;;;8.55;5.72;;;30.60;99.90;;;;;;4146983;28;20569;-67
2021/09/13 03:06:45;;;;;;;8.57;5.30;;;30.70;99.90;;;;;;4194999;28;20052;-65
2021/09/13 03:08:50;;;;;;;9.85;4.68;;;30.80;99.90;;;;;;4192206;28;20037;-67
2021/09/13 03:10:56;;;;;;;5.90;4.50;;;30.50;99.90;;;;;;4178425;28;20051;-67
2021/09/13 03:13:00;;;;;;;8.02;4.97;;;30.30;99.90;;;;;;4195886;28;20043;-66
2021/09/13 03:15:07;;;;;;;7.57;4.25;;;30.50;99.90;;;;;;4177946;28;20057;-67
2021/09/13 03:17:11;;;;;;;7.72;4.32;;;30.60;99.90;;;;;;4192202;28;20040;-67
2021/09/13 03:19:18;;;;;;;6.68;4.57;;;30.80;99.90;;;;;;4194528;28;20557;-67
2021/09/13 03:21:23;;;;;;;6.35;4.05;;;30.90;99.90;;;;;;4194553;28;20041;-67
2021/09/13 03:23:29;;;;;;;10.95;4.40;;;30.70;99.90;;;;;;4193414;28;20072;-67
2021/09/13 03:25:33;;;;;;;6.05;3.90;;;30.70;99.90;;;;;;4178159;28;20410;-67
2021/09/13 03:27:40;;;;;;;7.22;4.13;;;30.70;99.90;;;;;;4190883;28;20054;-67
2021/09/13 03:29:45;;;;;;;11.27;4.38;;;30.60;99.90;;;;;;4192127;28;20510;-67
2021/09/13 03:31:50;;;;;;;5.68;4.13;;;30.60;99.90;;;;;;4192086;28;20124;-67
2021/09/13 03:33:55;;;;;;;9.00;4.50;;;30.80;99.90;;;;;;4192154;28;20055;-67
2021/09/13 03:35:59;;;;;;;6.93;4.20;;;30.80;99.90;;;;;;4192303;28;20052;-67
2021/09/13 03:38:04;;;;;;;9.43;4.00;;;30.70;99.90;;;;;;4192242;28;20132;-67
2021/09/13 03:40:09;;;;;;;7.35;3.65;;;30.70;99.90;;;;;;4191439;28;20048;-67
2021/09/13 03:42:15;;;;;;;5.38;3.38;;;30.70;99.90;;;;;;4192314;28;20114;-68
2021/09/13 03:44:19;;;;;;;7.63;3.17;;;30.80;99.90;;;;;;4192707;28;20569;-67
2021/09/13 03:46:24;;;;;;;7.85;3.75;;;30.90;99.90;;;;;;4193254;28;20053;-67
2021/09/13 03:48:46;;;;;;;8.23;3.67;;;31.00;99.90;;;;;;4177531;28;20053;-68
2021/09/13 03:50:51;;;;;;;5.82;3.30;;;31.00;99.90;;;;;;4191994;28;20045;-68
2021/09/13 03:52:55;;;;;;;7.30;3.47;;;31.20;99.90;;;;;;4191278;28;20052;-68
2021/09/13 03:55:00;;;;;;;6.75;3.90;;;31.10;99.90;;;;;;4190403;28;20051;-68
2021/09/13 03:57:05;;;;;;;8.52;3.75;;;31.00;99.90;;;;;;4193015;28;20054;-67
2021/09/13 03:59:10;;;;;;;6.57;3.72;;;30.90;99.90;;;;;;4190934;28;20072;-68
2021/09/13 04:01:15;;;;;;;6.10;3.50;;;31.00;99.90;;;;;;4190661;28;20044;-67
2021/09/13 04:03:24;;;;;;;5.40;3.25;;;31.00;99.90;;;;;;4190437;28;20041;-68
2021/09/13 04:05:29;;;;;;;7.72;3.53;;;31.00;99.90;;;;;;4191936;28;20037;-68
2021/09/13 04:12:46;;;;;;;8.23;4.18;;;31.00;99.90;;;;;;4193933;28;20048;-68
2021/09/13 04:15:11;;;;;;;7.50;3.60;;;31.00;99.90;;;;;;4193622;28;20040;-68
2021/09/13 04:17:35;;;;;;;6.90;3.78;;;30.90;99.90;;;;;;4194577;28;20044;-67
2021/09/13 04:19:59;;;;;;;5.93;3.70;;;31.10;99.90;;;;;;4185937;28;20036;-67
2021/09/13 04:22:14;;;;;;;7.53;3.80;;;31.20;99.90;;;;;;4194651;28;20434;-67
2021/09/13 04:24:27;;;;;;;;;;;31.20;99.90;;;;;;4193637;28;20138;-67
2021/09/13 04:26:42;;;;;;;7.22;4.15;;;31.20;99.90;;;;;;4210459;28;19920;-67
2021/09/13 04:28:58;;;;;;;6.68;3.70;;;31.20;99.90;;;;;;4193732;28;20731;-69
2021/09/13 04:31:23;;;;;;;9.80;3.30;;;31.10;99.90;;;;;;4193542;28;20057;-69
2021/09/13 04:33:46;;;;;;;6.18;3.53;;;31.00;99.90;;;;;;4180589;28;20064;-68
2021/09/13 04:36:08;;;;;;;8.45;3.50;;;31.10;99.90;;;;;;4194368;28;20161;-67
2021/09/13 04:38:25;;;;;;;6.90;3.47;;;31.20;99.90;;;;;;4192513;28;20029;-67
2021/09/13 04:40:49;;;;;;;8.23;3.40;;;31.20;99.90;;;;;;4195438;28;20044;-67
2021/09/13 04:43:06;;;;;;;5.35;3.25;;;31.10;99.90;;;;;;4196091;28;20401;-67
2021/09/13 04:45:30;;;;;;;5.32;3.10;;;31.30;99.90;;;;;;4197600;28;20068;-67
2021/09/13 04:47:54;;;;;;;12.18;3.75;;;31.20;99.90;;;;;;4198381;28;20048;-67
2021/09/13 04:50:11;;;;;;;6.75;3.50;;;31.20;99.90;;;;;;4185913;28;20045;-67
2021/09/13 04:52:35;;;;;;;6.03;3.30;;;31.20;99.90;;;;;;4195997;28;20067;-67
2021/09/13 04:54:41;;;;;;;5.50;3.00;;;31.20;99.90;;;;;;4196274;28;20090;-67
2021/09/13 04:56:45;;;;;;;5.07;3.17;;;31.20;99.90;;;;;;4196338;28;20071;-67
2021/09/13 04:58:51;;;;;;;6.57;2.92;;;31.30;99.90;;;;;;4196392;28;20437;-68
2021/09/13 05:00:57;;;;;;;7.63;3.10;;;31.10;99.90;;;;;;4196129;28;20379;-67
2021/09/13 05:03:02;;;;;;;8.68;3.33;;;31.10;99.90;;;;;;4197560;28;20117;-67
2021/09/13 05:05:09;;;;;;;5.72;3.00;;;31.10;99.90;;;;;;4180913;28;20140;-67
2021/09/13 05:07:15;;;;;;;5.97;3.10;;;31.10;99.90;;;;;;4165573;28;20072;-67
2021/09/13 05:09:20;;;;;;;6.97;2.78;;;31.20;99.90;;;;;;4195849;28;20052;-67
2021/09/13 05:11:25;;;;;;;8.27;3.00;;;31.30;99.90;;;;;;4196368;28;20041;-67
2021/09/13 05:13:32;;;;;;;8.05;3.45;;;31.20;99.90;;;;;;4197835;28;20495;-67
2021/09/13 05:15:37;;;;;;;5.18;3.05;;;31.20;99.90;;;;;;4196168;28;20040;-67
2021/09/13 05:17:42;;;;;;;6.13;3.15;;;31.10;99.90;;;;;;4196439;28;20056;-67
2021/09/13 05:19:49;;;;;;;6.40;3.38;;;31.10;99.90;;;;;;4164196;28;20049;-67
2021/09/13 05:21:54;;;;;;;7.53;3.08;;;31.30;99.90;;;;;;4179848;28;20600;-67
2021/09/13 05:23:59;;;;;;;6.47;3.35;;;31.20;99.90;;;;;;4180600;28;20045;-67
2021/09/13 05:26:05;;;;;;;9.93;3.05;;;31.30;99.90;;;;;;4194436;28;20052;-67
2021/09/13 05:28:09;;;;;;;7.38;2.90;;;31.30;99.90;;;;;;4161491;28;20136;-68
2021/09/13 05:30:15;;;;;;;5.60;2.80;;;31.40;99.90;;;;;;4194947;28;20049;-67
2021/09/13 05:32:20;;;;;;;4.80;2.83;;;31.50;99.90;;;;;;4194264;28;20130;-68
2021/09/13 05:34:25;;;;;;;4.13;2.28;;;31.60;99.90;;;;;;4211131;28;20180;-69
2021/09/13 05:36:30;;;;;;;7.75;2.72;;;31.70;99.90;;;;;;4178279;28;20033;-69
2021/09/13 05:38:36;;;;;;;5.18;2.05;;;31.60;99.90;;;;;;4194580;28;20590;-69
2021/09/13 05:41:00;;;;;;;4.40;2.50;;;31.50;99.90;;;;;;4195465;28;20053;-68
2021/09/13 05:43:05;;;;;;;4.82;2.35;;;31.40;99.90;;;;;;4193286;28;20059;-68
2021/09/13 05:45:11;;;;;;;4.97;2.10;;;31.40;99.90;;;;;;4190550;28;20044;-68
2021/09/13 05:47:19;;;;;;;4.05;2.35;;;31.40;99.90;;;;;;4179750;28;20063;-68
2021/09/13 05:49:27;;;;;;;4.43;2.45;;;31.50;99.90;;;;;;4179971;28;20041;-68
2021/09/13 05:51:32;;;;;;;5.93;2.40;;;31.40;99.90;;;;;;4195652;28;20036;-68
2021/09/13 05:53:37;;;;;;;4.72;2.42;;;31.40;99.90;;;;;;4195502;28;20564;-68
2021/09/13 05:55:43;;;;;;;5.70;2.65;;;31.40;99.90;;;;;;4195428;28;20118;-67
2021/09/13 05:57:48;;;;;;;4.35;2.42;;;31.40;99.90;;;;;;4196517;28;20050;-68
2021/09/13 05:59:55;;;;;;;5.68;2.53;;;31.30;99.90;;;;;;4195158;28;20525;-68
2021/09/13 06:02:01;;;;;;;6.53;2.50;;;31.40;99.90;;;;;;4195129;28;20052;-69
2021/09/13 06:04:08;;;;;;;5.55;2.42;;;31.40;99.90;;;;;;4178129;28;20577;-68
2021/09/13 06:06:15;;;;;;;5.05;2.50;;;31.40;99.90;;;;;;4194940;28;20048;-68
2021/09/13 06:08:20;;;;;;;4.28;2.20;;;31.50;99.90;;;;;;4195122;28;20036;-68
2021/09/13 06:10:26;;;;;;;7.32;2.58;;;31.40;99.90;;;;;;4178261;28;20045;-69
2021/09/13 06:12:30;;;;;;;5.05;2.38;;;31.40;99.90;;;;;;4195190;28;20434;-69
2021/09/13 06:14:38;;;;;;;4.20;2.30;;;31.50;99.90;;;;;;4193663;28;20044;-68
2021/09/13 06:16:43;;;;;;;6.22;2.83;;;31.50;99.90;;;;;;4162276;28;20422;-68
2021/09/13 06:18:49;;;;;;;5.95;2.55;;;31.50;99.90;;;;;;4180052;28;20041;-68
2021/09/13 06:20:54;;;;;;;4.65;2.47;;;31.50;99.90;;;;;;4195625;28;20055;-68
2021/09/13 06:22:58;;;;;;;4.18;2.22;;;31.40;99.90;;;;;;4195072;28;20048;-68
2021/09/13 06:25:09;;;;;;;5.28;2.40;;;31.50;99.90;;;;;;4179228;28;20481;-67
2021/09/13 06:27:16;;;;;;;4.65;2.40;;;31.60;99.90;;;;;;4178786;28;20044;-67
2021/09/13 06:29:23;;;;;;;6.38;2.63;;;31.60;99.90;;;;;;4194547;28;20048;-68
2021/09/13 06:31:30;;;;;;;8.77;3.38;;;31.60;99.90;;;;;;4194051;28;20071;-67
2021/09/13 06:33:36;;;;;;;3.67;2.20;;;31.60;99.90;;;;;;4178946;28;20044;-68
2021/09/13 06:35:41;;;;;;;4.78;2.80;;;31.60;99.90;;;;;;4194391;28;20457;-69
2021/09/13 06:37:52;;;;;;;4.40;2.47;;;31.50;99.90;;;;;;4193817;28;20522;-68
2021/09/13 06:39:59;;;;;;;4.22;2.50;;;31.60;99.90;;;;;;4196003;28;20144;-68
2021/09/13 06:42:04;;;;;;;6.07;2.20;;;31.50;99.90;;;;;;4195159;28;20053;-68
2021/09/13 06:44:13;;;;;;;4.88;2.70;;;31.50;99.90;;;;;;4194602;28;20048;-68
2021/09/13 06:46:35;;;;;;;5.40;2.70;;;31.50;99.90;;;;;;4194510;28;20052;-68
2021/09/13 06:48:41;;;;;;;4.70;3.00;;;31.50;99.90;;;;;;4194456;28;20391;-68
2021/09/13 06:50:46;;;;;;;4.72;2.83;;;31.50;99.90;;;;;;4194967;28;20045;-68
2021/09/13 06:52:51;;;;;;;4.63;2.70;;;31.60;99.90;;;;;;4195941;28;20037;-68
2021/09/13 06:54:57;;;;;;;5.18;2.30;;;31.70;99.90;;;;;;4195406;28;20048;-68
2021/09/13 06:57:01;;;;;;;5.05;2.25;;;31.60;99.90;;;;;;4192244;28;20489;-68
2021/09/13 06:59:06;;;;;;;4.55;2.10;;;31.60;99.90;;;;;;4191972;28;20044;-68
2021/09/13 07:01:11;;;;;;;3.85;2.20;;;31.60;99.90;;;;;;4193580;28;20517;-68
2021/09/13 07:03:16;;;;;;;6.07;2.58;;;31.60;99.90;;;;;;4191989;28;20052;-68
2021/09/13 07:05:21;;;;;;;5.25;2.70;;;31.60;99.90;;;;;;4175844;28;20515;-68
2021/09/13 07:07:26;;;;;;;7.00;3.20;;;31.60;99.90;;;;;;4191249;28;20450;-68
2021/09/13 07:09:30;;;;;;;6.38;2.78;;;31.50;99.90;;;;;;4191979;28;20044;-68
2021/09/13 07:11:36;;;;;;;8.35;3.13;;;31.50;99.90;;;;;;4193286;28;20490;-68
2021/09/13 07:13:42;;;;;;;5.68;2.95;;;31.50;99.90;;;;;;4191819;28;20132;-68
2021/09/13 07:15:53;;;;;;;6.57;3.20;;;31.50;99.90;;;;;;4192914;28;20114;-68
2021/09/13 07:18:02;;;;;;;6.80;3.30;;;31.60;99.90;;;;;;4192417;28;20051;-68
2021/09/13 07:20:10;;;;;;;5.38;2.72;;;31.70;99.90;;;;;;4193407;28;20425;-69
2021/09/13 07:22:15;;;;;;;6.15;2.72;;;31.90;99.90;;;;;;4192096;28;20076;-69
2021/09/13 07:24:22;;;;;;;3.72;2.60;;;32.00;99.90;;;;;;4193807;28;20131;-69
2021/09/13 07:26:27;;;;;;;4.53;2.72;;;32.00;99.90;;;;;;4193623;28;20044;-69
2021/09/13 07:28:32;;;;;;;5.57;2.88;;;32.10;99.90;;;;;;4193527;28;20084;-69
2021/09/13 07:30:36;;;;;;;4.53;2.70;;;31.90;99.90;;;;;;4192052;28;20998;-70
2021/09/13 07:32:42;;;;;;;5.90;3.00;;;31.90;99.90;;;;;;4192251;28;20048;-69
2021/09/13 07:34:46;;;;;;;7.55;3.50;;;31.90;99.90;;;;;;4176147;28;20279;-70
2021/09/13 07:36:51;;;;;;;7.50;3.10;;;32.00;99.90;;;;;;4193321;28;20107;-69
2021/09/13 07:38:57;;;;;;;9.23;3.30;;;32.10;99.90;;;;;;4175611;28;20041;-70
2021/09/13 07:41:01;;;;;;;5.85;2.90;;;32.20;99.90;;;;;;4192492;28;20040;-70
2021/09/13 07:43:05;;;;;;;5.30;2.75;;;32.20;99.90;;;;;;4196210;28;20538;-70
2021/09/13 07:45:13;;;;;;;6.40;2.40;;;32.10;99.90;;;;;;4195039;28;20110;-70
2021/09/13 07:47:19;;;;;;;5.82;2.80;;;32.00;99.90;;;;;;4196683;28;20055;-70
2021/09/13 07:49:24;;;;;;;10.75;4.68;;;32.00;99.90;;;;;;4194816;28;20090;-70
2021/09/13 07:51:29;;;;;;;12.98;4.60;;;31.90;99.90;;;;;;4195274;28;20047;-69
2021/09/13 07:53:33;;;;;;;7.05;4.55;;;31.80;99.90;;;;;;4195866;28;20048;-69
2021/09/13 07:55:39;;;;;;;7.22;3.97;;;31.70;99.90;;;;;;4198406;28;20040;-68
2021/09/13 07:57:44;;;;;;;8.23;4.65;;;31.70;99.90;;;;;;4199135;28;20041;-69
2021/09/13 07:59:56;;;;;;;7.25;3.55;;;31.60;99.90;;;;;;4172507;28;20049;-69
2021/09/13 08:02:01;;;;;;;8.60;4.00;;;31.50;99.90;;;;;;4195701;28;20059;-69
2021/09/13 08:04:07;;;;;;;6.05;3.08;;;31.50;99.90;;;;;;4198035;28;20048;-68
2021/09/13 08:06:11;;;;;;;7.47;3.40;;;31.50;99.90;;;;;;4198377;28;20056;-69
2021/09/13 08:08:16;;;;;;;6.07;3.10;;;31.50;99.90;;;;;;4198631;28;20522;-69
2021/09/13 08:10:20;;;;;;;6.63;3.10;;;31.50;99.90;;;;;;4197555;28;20110;-69
2021/09/13 08:12:26;;;;;;;6.40;3.03;;;31.40;99.90;;;;;;4197024;28;20534;-68
2021/09/13 08:14:31;;;;;;;6.25;3.20;;;31.40;99.90;;;;;;4196725;28;20070;-68
2021/09/13 08:16:36;;;;;;;5.95;3.42;;;31.50;99.90;;;;;;4197237;28;20051;-69
2021/09/13 08:18:42;;;;;;;6.50;3.20;;;31.50;99.90;;;;;;4197616;28;20105;-69
2021/09/13 08:20:48;;;;;;;6.20;3.50;;;31.40;99.90;;;;;;4181641;28;20075;-68
2021/09/13 08:22:53;;;;;;;6.43;2.97;;;31.40;99.90;;;;;;4198281;28;20105;-69
2021/09/13 08:24:58;;;;;;;9.07;3.28;;;31.40;99.90;;;;;;4196960;28;20063;-69
2021/09/13 08:27:22;;;;;;;7.88;3.67;;;31.50;99.90;;;;;;4197698;28;20052;-69
2021/09/13 08:29:27;;;;;;;6.30;3.60;;;31.50;99.90;;;;;;4186962;28;20043;-69
2021/09/13 08:31:32;;;;;;;5.80;3.80;;;31.60;99.90;;;;;;4196760;28;20053;-69
2021/09/13 08:33:36;;;;;;;6.88;3.70;;;31.60;99.90;;;;;;4198226;28;20043;-69
2021/09/13 08:35:41;;;;;;;7.97;3.60;;;31.60;99.90;;;;;;4197808;28;20037;-69
2021/09/13 08:37:45;;;;;;;7.95;3.58;;;31.60;99.90;;;;;;4197987;28;20047;-69
2021/09/13 08:39:50;;;;;;;5.97;3.60;;;31.60;99.90;;;;;;4195795;28;20051;-69
2021/09/13 08:41:55;;;;;;;6.25;3.50;;;31.60;99.90;;;;;;4198191;28;20299;-69
2021/09/13 08:44:00;;;;;;;10.32;4.47;;;31.60;99.90;;;;;;4197628;28;20044;-69
2021/09/13 08:46:08;;;;;;;7.57;3.33;;;31.70;99.90;;;;;;4196513;28;20044;-69
2021/09/13 08:50:39;;;;;;;7.57;3.80;;;31.70;99.90;;;;;;4197733;28;20410;-69
2021/09/13 08:52:44;;;;;;;6.65;3.42;;;31.80;99.90;;;;;;4194731;28;20036;-69
2021/09/13 08:54:49;;;;;;;6.00;3.17;;;31.80;99.90;;;;;;4195316;28;20114;-69
2021/09/13 08:56:58;;;;;;;7.70;3.80;;;31.90;99.90;;;;;;4197517;28;20048;-69
2021/09/13 08:59:03;;;;;;;5.10;3.88;;;32.00;99.90;;;;;;4194746;28;20119;-69
2021/09/13 09:01:08;;;;;;;8.65;4.25;;;32.00;99.90;;;;;;4194983;28;20044;-69
2021/09/13 09:03:12;;;;;;;7.13;4.10;;;32.00;99.90;;;;;;4197297;28;20037;-68
2021/09/13 09:05:17;;;;;;;7.78;3.78;;;31.80;99.90;;;;;;4179933;28;20053;-69
2021/09/13 09:07:23;;;;;;;8.95;4.50;;;31.80;99.90;;;;;;4212728;28;20043;-69
2021/09/13 09:09:28;;;;;;;8.70;4.53;;;31.70;99.90;;;;;;4197211;28;20449;-69
2021/09/13 09:11:50;;;;;;;8.35;5.45;;;31.60;99.90;;;;;;4197752;28;20036;-70
2021/09/13 09:13:57;;;;;;;7.90;4.63;;;31.60;99.90;;;;;;4182248;28;20041;-70
2021/09/13 09:16:02;;;;;;;8.85;4.43;;;31.60;99.90;;;;;;4195834;28;20045;-70
2021/09/13 09:18:10;;;;;;;7.78;4.10;;;31.50;99.90;;;;;;4196558;28;20489;-70
2021/09/13 09:20:16;;;;;;;9.25;4.25;;;31.50;99.90;;;;;;4180062;28;20074;-68
2021/09/13 09:22:23;;;;;;;9.77;4.30;;;31.40;99.90;;;;;;4194712;28;20127;-69
2021/09/13 09:24:27;;;;;;;9.13;4.55;;;31.40;99.90;;;;;;4197936;28;20059;-68
2021/09/13 09:26:32;;;;;;;9.50;4.32;;;31.40;99.90;;;;;;4173880;28;20075;-68
2021/09/13 09:28:37;;;;;;;9.25;4.50;;;31.40;99.90;;;;;;4178355;28;20140;-69
2021/09/13 09:30:43;;;;;;;9.40;4.90;;;31.40;99.90;;;;;;4177402;28;20057;-69
2021/09/13 09:33:01;;;;;;;9.93;5.07;;;31.40;99.90;;;;;;4176824;28;20045;-69
2021/09/13 09:35:16;;;;;;;8.38;4.95;;;31.40;99.90;;;;;;4176248;28;20045;-68
2021/09/13 09:37:25;;;;;;;8.70;4.80;;;31.30;99.90;;;;;;4162811;28;20128;-68
2021/09/13 09:39:30;;;;;;;10.77;5.10;;;31.40;99.90;;;;;;4177279;28;20128;-69
2021/09/13 09:41:35;;;;;;;10.10;6.35;;;31.40;99.90;;;;;;4161571;28;20049;-69
2021/09/13 09:44:00;;;;;;;9.43;5.15;;;31.30;99.90;;;;;;4143785;28;20076;-68
2021/09/13 09:46:11;;;;;;;9.98;5.35;;;31.30;99.90;;;;;;4142269;28;20267;-69
2021/09/13 09:48:15;;;;;;;11.90;6.93;;;31.30;99.90;;;;;;4145387;28;20496;-69
2021/09/13 09:50:29;;;;;;;14.82;8.60;;;31.30;99.90;;;;;;4127216;28;20050;-68
2021/09/13 09:52:41;;;;;;;11.55;8.05;;;31.20;99.90;;;;;;4128718;28;20046;-68
2021/09/13 09:54:47;;;;;;;11.98;7.78;;;31.20;99.90;;;;;;4144976;28;20695;-68
2021/09/13 09:57:12;;;;;;;13.30;7.97;;;31.20;99.90;;;;;;4145324;28;20222;-69
2021/09/13 09:59:17;;;;;;;14.05;7.80;;;31.10;99.90;;;;;;4160167;28;20426;-69
2021/09/13 10:01:51;;;;;;;14.85;8.18;;;31.20;99.90;;;;;;4160208;28;20095;-69
2021/09/13 10:03:56;;;;;;;20.98;10.45;;;31.20;99.90;;;;;;4141845;28;20049;-69
2021/09/13 10:06:00;;;;;;;16.42;10.25;;;31.10;99.90;;;;;;4129199;28;20050;-69
2021/09/13 10:08:06;;;;;;;17.05;10.13;;;31.10;99.90;;;;;;4144402;28;20046;-67
2021/09/13 10:10:10;;;;;;;16.27;9.25;;;31.00;99.90;;;;;;4160603;28;20041;-68
2021/09/13 10:12:15;;;;;;;14.90;8.60;;;31.00;99.90;;;;;;4143496;28;20116;-69
2021/09/13 10:14:21;;;;;;;19.83;8.70;;;31.00;99.90;;;;;;4166596;28;20455;-69
2021/09/13 10:16:25;;;;;;;18.55;8.20;;;30.90;99.90;;;;;;4193723;28;20044;-69
2021/09/13 10:18:31;;;;;;;14.38;7.78;;;30.90;99.90;;;;;;4194710;28;20063;-69
2021/09/13 10:20:35;;;;;;;16.25;8.35;;;30.90;99.90;;;;;;4192978;28;20033;-69
2021/09/13 10:22:42;;;;;;;16.95;10.32;;;30.90;99.90;;;;;;4193936;28;20049;-68
2021/09/13 10:24:47;;;;;;;13.95;8.55;;;30.90;99.90;;;;;;4193977;28;20044;-68
2021/09/13 10:27:14;;;;;;;16.92;8.27;;;30.90;99.90;;;;;;4193542;28;20044;-68
2021/09/13 10:29:20;;;;;;;13.82;8.25;;;30.90;99.90;;;;;;4194839;28;20049;-69
2021/09/13 10:31:45;;;;;;;13.45;8.20;;;30.90;99.90;;;;;;4177315;28;20527;-69
2021/09/13 10:33:57;;;;;;;11.73;8.07;;;30.90;99.90;;;;;;4195152;28;20046;-69
2021/09/13 10:36:05;;;;;;;18.73;9.48;;;30.90;99.90;;;;;;4193049;28;20136;-69
2021/09/13 10:38:10;;;;;;;13.60;8.27;;;30.90;99.90;;;;;;4195472;28;20047;-67
2021/09/13 10:40:28;;;;;;;16.45;7.90;;;30.90;99.90;;;;;;4196415;28;20127;-68
2021/09/13 10:42:36;;;;;;;15.88;7.20;;;30.90;99.90;;;;;;4195382;28;20094;-67
2021/09/13 10:44:41;;;;;;;11.05;6.50;;;30.90;99.90;;;;;;4194715;28;20075;-67
2021/09/13 10:47:04;;;;;;;12.85;6.85;;;30.90;99.90;;;;;;4191526;28;20051;-66
2021/09/13 10:49:12;;;;;;;13.02;7.00;;;30.90;99.90;;;;;;4176769;28;20075;-67
2021/09/13 10:51:17;;;;;;;10.88;6.30;;;30.80;99.90;;;;;;4194787;28;20048;-67
2021/09/13 10:53:22;;;;;;;12.35;7.25;;;30.80;99.90;;;;;;4193450;28;20048;-68
2021/09/13 10:55:33;;;;;;;13.02;7.50;;;30.80;99.90;;;;;;4195042;28;20071;-68
2021/09/13 10:57:54;;;;;;;11.82;7.65;;;30.70;99.90;;;;;;4193942;28;20045;-67
2021/09/13 10:59:58;;;;;;;16.25;7.97;;;30.70;99.90;;;;;;4192146;28;20499;-67
2021/09/13 11:02:09;;;;;;;15.27;8.90;;;30.70;99.90;;;;;;4194981;28;20056;-68
2021/09/13 11:04:15;;;;;;;16.90;8.05;;;30.70;99.90;;;;;;4177748;28;20052;-69
2021/09/13 11:06:19;;;;;;;15.10;8.85;;;30.70;99.90;;;;;;4195254;28;20097;-69
2021/09/13 11:08:25;;;;;;;15.05;8.00;;;30.60;99.90;;;;;;4192986;28;20044;-67
2021/09/13 11:10:46;;;;;;;14.75;7.68;;;30.60;99.90;;;;;;4194219;28;20053;-69